sensor_id;sensor_type;location;lat;lon;timestamp;temperature;humidity
19025;DHT22;9645;51.448;6.260;2022-07-29T00:00:29;18.70;99.90
19025;DHT22;9645;51.448;6.260;2022-07-29T00:02:56;18.70;99.90
19025;DHT22;9645;51.448;6.260;2022-07-29T00:05:23;18.70;99.90
19025;DHT22;9645;51.448;6.260;2022-07-29T00:07:51;18.60;99.90
19025;DHT22;9645;51.448;6.260;2022-07-29T00:10:18;18.60;99.90
19025;DHT22;9645;51.448;6.260;2022-07-29T00:12:45;18.60;99.90
19025;DHT22;9645;51.448;6.260;2022-07-29T00:15:12;18.70;99.90
19025;DHT22;9645;51.448;6.260;2022-07-29T00:17:40;18.60;99.90
19025;DHT22;9645;51.448;6.260;2022-07-29T00:20:08;18.50;99.90
19025;DHT22;9645;51.448;6.260;2022-07-29T00:22:37;18.50;99.90
19025;DHT22;9645;51.448;6.260;2022-07-29T00:25:06;18.40;99.90
19025;DHT22;9645;51.448;6.260;2022-07-29T00:27:33;18.40;99.90
19025;DHT22;9645;51.448;6.260;2022-07-29T00:30:00;18.40;99.90
19025;DHT22;9645;51.448;6.260;2022-07-29T00:32:27;18.40;99.90
19025;DHT22;9645;51.448;6.260;2022-07-29T00:34:54;18.40;99.90
19025;DHT22;9645;51.448;6.260;2022-07-29T00:37:39;18.30;99.90
19025;DHT22;9645;51.448;6.260;2022-07-29T00:40:08;18.40;99.90
19025;DHT22;9645;51.448;6.260;2022-07-29T00:42:42;18.30;99.90
19025;DHT22;9645;51.448;6.260;2022-07-29T00:45:09;18.30;99.90
19025;DHT22;9645;51.448;6.260;2022-07-29T00:47:37;18.30;99.90
19025;DHT22;9645;51.448;6.260;2022-07-29T00:50:05;18.20;99.90
19025;DHT22;9645;51.448;6.260;2022-07-29T00:52:33;18.20;99.90
19025;DHT22;9645;51.448;6.260;2022-07-29T00:55:00;18.20;99.90
19025;DHT22;9645;51.448;6.260;2022-07-29T00:57:28;18.10;99.90
19025;DHT22;9645;51.448;6.260;2022-07-29T00:59:55;18.10;99.90
19025;DHT22;9645;51.448;6.260;2022-07-29T01:02:23;18.10;99.90
19025;DHT22;9645;51.448;6.260;2022-07-29T01:04:50;18.00;99.90
19025;DHT22;9645;51.448;6.260;2022-07-29T01:07:17;18.00;99.90
19025;DHT22;9645;51.448;6.260;2022-07-29T01:09:45;18.10;99.90
19025;DHT22;9645;51.448;6.260;2022-07-29T01:12:13;18.10;99.90
19025;DHT22;9645;51.448;6.260;2022-07-29T01:14:43;18.10;99.90
19025;DHT22;9645;51.448;6.260;2022-07-29T01:17:13;18.10;99.90
19025;DHT22;9645;51.448;6.260;2022-07-29T01:19:48;18.10;99.90
19025;DHT22;9645;51.448;6.260;2022-07-29T01:22:31;18.00;99.90
19025;DHT22;9645;51.448;6.260;2022-07-29T01:25:29;18.00;99.90
19025;DHT22;9645;51.448;6.260;2022-07-29T01:30:54;17.90;99.90
19025;DHT22;9645;51.448;6.260;2022-07-29T01:33:22;17.90;99.90
19025;DHT22;9645;51.448;6.260;2022-07-29T01:36:12;17.90;99.90
19025;DHT22;9645;51.448;6.260;2022-07-29T01:38:42;17.90;99.90
19025;DHT22;9645;51.448;6.260;2022-07-29T01:41:12;17.90;99.90
19025;DHT22;9645;51.448;6.260;2022-07-29T01:43:46;17.90;99.90
19025;DHT22;9645;51.448;6.260;2022-07-29T01:46:21;18.00;99.90
19025;DHT22;9645;51.448;6.260;2022-07-29T01:48:56;17.90;99.90
19025;DHT22;9645;51.448;6.260;2022-07-29T01:51:27;17.90;99.90
19025;DHT22;9645;51.448;6.260;2022-07-29T01:54:01;17.80;99.90
19025;DHT22;9645;51.448;6.260;2022-07-29T01:56:30;17.80;99.90
19025;DHT22;9645;51.448;6.260;2022-07-29T01:58:59;17.80;99.90
19025;DHT22;9645;51.448;6.260;2022-07-29T02:01:29;17.60;99.90
19025;DHT22;9645;51.448;6.260;2022-07-29T02:03:58;17.50;99.90
19025;DHT22;9645;51.448;6.260;2022-07-29T02:06:26;17.50;99.90
19025;DHT22;9645;51.448;6.260;2022-07-29T02:08:56;17.40;99.90
19025;DHT22;9645;51.448;6.260;2022-07-29T02:11:24;17.30;99.90
19025;DHT22;9645;51.448;6.260;2022-07-29T02:13:52;17.20;99.90
19025;DHT22;9645;51.448;6.260;2022-07-29T02:16:21;17.20;99.90
19025;DHT22;9645;51.448;6.260;2022-07-29T02:18:52;17.20;99.90
19025;DHT22;9645;51.448;6.260;2022-07-29T02:21:24;17.00;99.90
19025;DHT22;9645;51.448;6.260;2022-07-29T02:23:52;17.00;99.90
19025;DHT22;9645;51.448;6.260;2022-07-29T02:26:21;17.00;99.90
19025;DHT22;9645;51.448;6.260;2022-07-29T02:28:50;17.00;99.90
19025;DHT22;9645;51.448;6.260;2022-07-29T02:31:21;16.90;99.90
19025;DHT22;9645;51.448;6.260;2022-07-29T02:33:50;17.00;99.90
19025;DHT22;9645;51.448;6.260;2022-07-29T02:36:21;17.00;99.90
19025;DHT22;9645;51.448;6.260;2022-07-29T02:38:50;16.90;99.90
19025;DHT22;9645;51.448;6.260;2022-07-29T02:41:20;16.90;99.90
19025;DHT22;9645;51.448;6.260;2022-07-29T02:43:48;16.80;99.90
19025;DHT22;9645;51.448;6.260;2022-07-29T02:46:20;16.90;99.90
19025;DHT22;9645;51.448;6.260;2022-07-29T02:48:58;16.90;99.90
19025;DHT22;9645;51.448;6.260;2022-07-29T02:51:32;17.00;99.90
19025;DHT22;9645;51.448;6.260;2022-07-29T02:54:02;16.90;99.90
19025;DHT22;9645;51.448;6.260;2022-07-29T02:56:33;16.90;99.90
19025;DHT22;9645;51.448;6.260;2022-07-29T02:59:05;16.70;99.90
19025;DHT22;9645;51.448;6.260;2022-07-29T03:01:35;16.70;99.90
19025;DHT22;9645;51.448;6.260;2022-07-29T03:04:08;16.60;99.90
19025;DHT22;9645;51.448;6.260;2022-07-29T03:06:37;16.50;99.90
19025;DHT22;9645;51.448;6.260;2022-07-29T03:09:06;16.40;99.90
19025;DHT22;9645;51.448;6.260;2022-07-29T03:11:34;16.40;99.90
19025;DHT22;9645;51.448;6.260;2022-07-29T03:14:02;16.30;99.90
19025;DHT22;9645;51.448;6.260;2022-07-29T03:16:31;16.10;99.90
19025;DHT22;9645;51.448;6.260;2022-07-29T03:18:58;16.10;99.90
19025;DHT22;9645;51.448;6.260;2022-07-29T03:21:27;16.00;99.90
19025;DHT22;9645;51.448;6.260;2022-07-29T03:23:54;15.90;99.90
19025;DHT22;9645;51.448;6.260;2022-07-29T03:26:21;15.90;99.90
19025;DHT22;9645;51.448;6.260;2022-07-29T03:28:48;15.90;99.90
19025;DHT22;9645;51.448;6.260;2022-07-29T03:31:15;15.80;99.90
19025;DHT22;9645;51.448;6.260;2022-07-29T03:33:42;15.80;99.90
19025;DHT22;9645;51.448;6.260;2022-07-29T03:36:09;15.80;99.90
19025;DHT22;9645;51.448;6.260;2022-07-29T03:38:38;15.80;99.90
19025;DHT22;9645;51.448;6.260;2022-07-29T03:41:09;15.80;99.90
19025;DHT22;9645;51.448;6.260;2022-07-29T03:43:38;15.80;99.90
19025;DHT22;9645;51.448;6.260;2022-07-29T03:46:07;15.80;99.90
19025;DHT22;9645;51.448;6.260;2022-07-29T03:48:38;15.80;99.90
19025;DHT22;9645;51.448;6.260;2022-07-29T03:51:06;15.90;99.90
19025;DHT22;9645;51.448;6.260;2022-07-29T03:53:33;15.90;99.90
19025;DHT22;9645;51.448;6.260;2022-07-29T03:56:03;15.90;99.90
19025;DHT22;9645;51.448;6.260;2022-07-29T03:58:33;16.00;99.90
19025;DHT22;9645;51.448;6.260;2022-07-29T04:01:01;16.00;99.90
19025;DHT22;9645;51.448;6.260;2022-07-29T04:03:28;15.90;99.90
19025;DHT22;9645;51.448;6.260;2022-07-29T04:06:00;15.80;99.90
19025;DHT22;9645;51.448;6.260;2022-07-29T04:08:27;15.80;99.90
19025;DHT22;9645;51.448;6.260;2022-07-29T04:10:55;15.70;99.90
19025;DHT22;9645;51.448;6.260;2022-07-29T04:13:23;15.70;99.90
19025;DHT22;9645;51.448;6.260;2022-07-29T04:15:50;15.70;99.90
19025;DHT22;9645;51.448;6.260;2022-07-29T04:18:17;15.70;99.90
19025;DHT22;9645;51.448;6.260;2022-07-29T04:20:44;15.60;99.90
19025;DHT22;9645;51.448;6.260;2022-07-29T04:23:11;15.60;99.90
19025;DHT22;9645;51.448;6.260;2022-07-29T04:25:39;15.60;99.90
19025;DHT22;9645;51.448;6.260;2022-07-29T04:28:07;15.60;99.90
19025;DHT22;9645;51.448;6.260;2022-07-29T04:30:36;15.60;99.90
19025;DHT22;9645;51.448;6.260;2022-07-29T04:33:05;15.70;99.90
19025;DHT22;9645;51.448;6.260;2022-07-29T04:35:34;15.60;99.90
19025;DHT22;9645;51.448;6.260;2022-07-29T04:38:01;15.60;99.90
19025;DHT22;9645;51.448;6.260;2022-07-29T04:40:29;15.60;99.90
19025;DHT22;9645;51.448;6.260;2022-07-29T04:42:56;15.50;99.90
19025;DHT22;9645;51.448;6.260;2022-07-29T04:45:23;15.40;99.90
19025;DHT22;9645;51.448;6.260;2022-07-29T04:47:51;15.40;99.90
19025;DHT22;9645;51.448;6.260;2022-07-29T04:50:19;15.40;99.90
19025;DHT22;9645;51.448;6.260;2022-07-29T04:52:46;15.30;99.90
19025;DHT22;9645;51.448;6.260;2022-07-29T04:55:13;15.30;99.90
19025;DHT22;9645;51.448;6.260;2022-07-29T04:57:40;15.30;99.90
19025;DHT22;9645;51.448;6.260;2022-07-29T05:00:08;15.30;99.90
19025;DHT22;9645;51.448;6.260;2022-07-29T05:02:35;15.20;99.90
19025;DHT22;9645;51.448;6.260;2022-07-29T05:05:04;15.30;99.90
19025;DHT22;9645;51.448;6.260;2022-07-29T05:07:31;15.20;99.90
19025;DHT22;9645;51.448;6.260;2022-07-29T05:09:58;15.20;99.90
19025;DHT22;9645;51.448;6.260;2022-07-29T05:12:25;15.30;99.90
19025;DHT22;9645;51.448;6.260;2022-07-29T05:14:53;15.30;99.90
19025;DHT22;9645;51.448;6.260;2022-07-29T05:17:20;15.30;99.90
19025;DHT22;9645;51.448;6.260;2022-07-29T05:19:47;15.30;99.90
19025;DHT22;9645;51.448;6.260;2022-07-29T05:22:17;15.30;99.90
19025;DHT22;9645;51.448;6.260;2022-07-29T05:24:44;15.30;99.90
19025;DHT22;9645;51.448;6.260;2022-07-29T05:27:11;15.30;99.90
19025;DHT22;9645;51.448;6.260;2022-07-29T05:29:38;15.30;99.90
19025;DHT22;9645;51.448;6.260;2022-07-29T05:32:05;15.30;99.90
19025;DHT22;9645;51.448;6.260;2022-07-29T05:34:32;15.40;99.90
19025;DHT22;9645;51.448;6.260;2022-07-29T05:36:59;15.50;99.90
19025;DHT22;9645;51.448;6.260;2022-07-29T05:39:28;15.40;99.90
19025;DHT22;9645;51.448;6.260;2022-07-29T05:41:55;15.40;99.90
19025;DHT22;9645;51.448;6.260;2022-07-29T05:44:22;15.30;99.90
19025;DHT22;9645;51.448;6.260;2022-07-29T05:46:49;15.30;99.90
19025;DHT22;9645;51.448;6.260;2022-07-29T05:49:16;15.30;99.90
19025;DHT22;9645;51.448;6.260;2022-07-29T05:51:43;15.40;99.90
19025;DHT22;9645;51.448;6.260;2022-07-29T05:54:10;15.50;99.90
19025;DHT22;9645;51.448;6.260;2022-07-29T05:56:38;15.50;99.90
19025;DHT22;9645;51.448;6.260;2022-07-29T05:59:05;15.50;99.90
19025;DHT22;9645;51.448;6.260;2022-07-29T06:01:32;15.50;99.90
19025;DHT22;9645;51.448;6.260;2022-07-29T06:03:59;15.70;99.90
19025;DHT22;9645;51.448;6.260;2022-07-29T06:06:26;15.80;99.90
19025;DHT22;9645;51.448;6.260;2022-07-29T06:08:53;15.90;99.90
19025;DHT22;9645;51.448;6.260;2022-07-29T06:11:20;16.00;99.90
19025;DHT22;9645;51.448;6.260;2022-07-29T06:13:48;16.00;99.90
19025;DHT22;9645;51.448;6.260;2022-07-29T06:16:15;16.10;99.90
19025;DHT22;9645;51.448;6.260;2022-07-29T06:18:42;16.10;99.90
19025;DHT22;9645;51.448;6.260;2022-07-29T06:21:10;16.20;99.90
19025;DHT22;9645;51.448;6.260;2022-07-29T06:23:37;16.20;99.90
19025;DHT22;9645;51.448;6.260;2022-07-29T06:26:04;16.30;99.90
19025;DHT22;9645;51.448;6.260;2022-07-29T06:28:32;16.30;99.90
19025;DHT22;9645;51.448;6.260;2022-07-29T06:31:00;16.20;99.90
19025;DHT22;9645;51.448;6.260;2022-07-29T06:33:27;16.20;99.90
19025;DHT22;9645;51.448;6.260;2022-07-29T06:35:54;16.00;99.90
19025;DHT22;9645;51.448;6.260;2022-07-29T06:38:21;16.00;99.90
19025;DHT22;9645;51.448;6.260;2022-07-29T06:40:48;16.00;99.90
19025;DHT22;9645;51.448;6.260;2022-07-29T06:43:33;15.90;99.90
19025;DHT22;9645;51.448;6.260;2022-07-29T06:46:05;15.80;99.90
19025;DHT22;9645;51.448;6.260;2022-07-29T06:48:33;15.80;99.90
19025;DHT22;9645;51.448;6.260;2022-07-29T06:51:02;15.80;99.90
19025;DHT22;9645;51.448;6.260;2022-07-29T06:53:29;15.70;99.90
19025;DHT22;9645;51.448;6.260;2022-07-29T06:55:57;15.70;99.90
19025;DHT22;9645;51.448;6.260;2022-07-29T06:58:24;15.70;99.90
19025;DHT22;9645;51.448;6.260;2022-07-29T07:00:52;15.70;99.90
19025;DHT22;9645;51.448;6.260;2022-07-29T07:03:20;15.70;99.90
19025;DHT22;9645;51.448;6.260;2022-07-29T07:05:48;15.80;99.90
19025;DHT22;9645;51.448;6.260;2022-07-29T07:08:15;15.80;99.90
19025;DHT22;9645;51.448;6.260;2022-07-29T07:10:43;15.90;99.90
19025;DHT22;9645;51.448;6.260;2022-07-29T07:13:10;16.00;99.90
19025;DHT22;9645;51.448;6.260;2022-07-29T07:15:37;16.10;99.90
19025;DHT22;9645;51.448;6.260;2022-07-29T07:18:05;16.20;99.90
19025;DHT22;9645;51.448;6.260;2022-07-29T07:20:33;16.40;99.90
19025;DHT22;9645;51.448;6.260;2022-07-29T07:23:00;16.50;99.90
19025;DHT22;9645;51.448;6.260;2022-07-29T07:25:28;16.60;99.90
19025;DHT22;9645;51.448;6.260;2022-07-29T07:27:55;16.60;99.90
19025;DHT22;9645;51.448;6.260;2022-07-29T07:30:22;16.70;99.90
19025;DHT22;9645;51.448;6.260;2022-07-29T07:32:49;16.70;99.90
19025;DHT22;9645;51.448;6.260;2022-07-29T07:35:16;16.80;99.90
19025;DHT22;9645;51.448;6.260;2022-07-29T07:37:44;16.90;99.90
19025;DHT22;9645;51.448;6.260;2022-07-29T07:40:12;17.00;99.90
19025;DHT22;9645;51.448;6.260;2022-07-29T07:42:39;17.00;99.90
19025;DHT22;9645;51.448;6.260;2022-07-29T07:45:08;17.10;99.90
19025;DHT22;9645;51.448;6.260;2022-07-29T07:47:35;17.10;99.90
19025;DHT22;9645;51.448;6.260;2022-07-29T07:50:04;17.10;99.90
19025;DHT22;9645;51.448;6.260;2022-07-29T07:52:31;17.10;99.90
19025;DHT22;9645;51.448;6.260;2022-07-29T07:55:00;17.10;99.90
19025;DHT22;9645;51.448;6.260;2022-07-29T07:57:27;17.10;99.90
19025;DHT22;9645;51.448;6.260;2022-07-29T07:59:54;17.10;99.90
19025;DHT22;9645;51.448;6.260;2022-07-29T08:02:21;17.00;99.90
19025;DHT22;9645;51.448;6.260;2022-07-29T08:04:48;17.00;99.90
19025;DHT22;9645;51.448;6.260;2022-07-29T08:07:14;17.00;99.90
19025;DHT22;9645;51.448;6.260;2022-07-29T08:09:41;17.00;99.90
19025;DHT22;9645;51.448;6.260;2022-07-29T08:12:10;17.00;99.90
19025;DHT22;9645;51.448;6.260;2022-07-29T08:14:37;17.00;99.90
19025;DHT22;9645;51.448;6.260;2022-07-29T08:17:04;17.00;99.90
19025;DHT22;9645;51.448;6.260;2022-07-29T08:19:31;17.00;99.90
19025;DHT22;9645;51.448;6.260;2022-07-29T08:21:58;16.90;99.90
19025;DHT22;9645;51.448;6.260;2022-07-29T08:24:25;16.90;99.90
19025;DHT22;9645;51.448;6.260;2022-07-29T08:27:13;16.90;99.90
19025;DHT22;9645;51.448;6.260;2022-07-29T08:29:40;16.70;99.90
19025;DHT22;9645;51.448;6.260;2022-07-29T08:32:07;16.70;99.90
19025;DHT22;9645;51.448;6.260;2022-07-29T08:34:34;16.60;99.90
19025;DHT22;9645;51.448;6.260;2022-07-29T08:37:01;16.60;99.90
19025;DHT22;9645;51.448;6.260;2022-07-29T08:39:28;16.70;99.90
19025;DHT22;9645;51.448;6.260;2022-07-29T08:41:55;16.60;99.90
19025;DHT22;9645;51.448;6.260;2022-07-29T08:44:24;16.60;99.90
19025;DHT22;9645;51.448;6.260;2022-07-29T08:46:52;16.60;99.90
19025;DHT22;9645;51.448;6.260;2022-07-29T08:49:19;16.50;99.90
19025;DHT22;9645;51.448;6.260;2022-07-29T08:51:46;16.60;99.90
19025;DHT22;9645;51.448;6.260;2022-07-29T08:54:17;16.70;99.90
19025;DHT22;9645;51.448;6.260;2022-07-29T08:56:47;16.80;99.90
19025;DHT22;9645;51.448;6.260;2022-07-29T08:59:15;16.90;99.90
19025;DHT22;9645;51.448;6.260;2022-07-29T09:01:44;17.00;99.90
19025;DHT22;9645;51.448;6.260;2022-07-29T09:04:12;17.20;99.90
19025;DHT22;9645;51.448;6.260;2022-07-29T09:06:44;17.30;99.90
19025;DHT22;9645;51.448;6.260;2022-07-29T09:09:13;17.60;99.90
19025;DHT22;9645;51.448;6.260;2022-07-29T09:11:41;18.00;99.90
19025;DHT22;9645;51.448;6.260;2022-07-29T09:14:10;18.30;99.90
19025;DHT22;9645;51.448;6.260;2022-07-29T09:16:47;18.60;99.90
19025;DHT22;9645;51.448;6.260;2022-07-29T09:19:26;18.70;99.90
19025;DHT22;9645;51.448;6.260;2022-07-29T09:21:55;19.40;99.90
19025;DHT22;9645;51.448;6.260;2022-07-29T09:24:35;19.70;99.90
19025;DHT22;9645;51.448;6.260;2022-07-29T09:27:08;19.80;99.90
19025;DHT22;9645;51.448;6.260;2022-07-29T09:29:36;20.00;99.90
19025;DHT22;9645;51.448;6.260;2022-07-29T09:32:08;20.40;99.90
19025;DHT22;9645;51.448;6.260;2022-07-29T09:34:36;21.80;99.90
19025;DHT22;9645;51.448;6.260;2022-07-29T09:37:03;22.10;99.90
19025;DHT22;9645;51.448;6.260;2022-07-29T09:39:32;22.50;99.90
19025;DHT22;9645;51.448;6.260;2022-07-29T09:42:01;22.80;99.90
19025;DHT22;9645;51.448;6.260;2022-07-29T09:44:41;22.90;99.90
19025;DHT22;9645;51.448;6.260;2022-07-29T09:47:10;22.90;99.90
19025;DHT22;9645;51.448;6.260;2022-07-29T09:49:52;22.90;99.90
19025;DHT22;9645;51.448;6.260;2022-07-29T09:52:20;23.60;99.90
19025;DHT22;9645;51.448;6.260;2022-07-29T09:54:47;24.00;99.90
19025;DHT22;9645;51.448;6.260;2022-07-29T09:57:28;24.10;99.90
19025;DHT22;9645;51.448;6.260;2022-07-29T09:59:59;24.30;99.90
19025;DHT22;9645;51.448;6.260;2022-07-29T10:02:33;23.80;99.90
19025;DHT22;9645;51.448;6.260;2022-07-29T10:05:01;24.10;99.90
19025;DHT22;9645;51.448;6.260;2022-07-29T10:07:43;24.60;99.90
19025;DHT22;9645;51.448;6.260;2022-07-29T10:10:18;25.20;99.90
19025;DHT22;9645;51.448;6.260;2022-07-29T10:12:50;25.00;99.90
19025;DHT22;9645;51.448;6.260;2022-07-29T10:15:18;24.70;99.90
19025;DHT22;9645;51.448;6.260;2022-07-29T10:17:47;24.80;99.90
19025;DHT22;9645;51.448;6.260;2022-07-29T10:20:15;24.60;99.90
19025;DHT22;9645;51.448;6.260;2022-07-29T10:22:42;24.20;99.90
19025;DHT22;9645;51.448;6.260;2022-07-29T10:25:14;24.30;99.90
19025;DHT22;9645;51.448;6.260;2022-07-29T10:27:42;24.00;99.90
19025;DHT22;9645;51.448;6.260;2022-07-29T10:30:11;24.30;99.90
19025;DHT22;9645;51.448;6.260;2022-07-29T10:33:02;23.80;99.90
19025;DHT22;9645;51.448;6.260;2022-07-29T10:35:57;24.00;99.90
19025;DHT22;9645;51.448;6.260;2022-07-29T10:38:54;24.20;99.90
19025;DHT22;9645;51.448;6.260;2022-07-29T10:41:36;24.60;99.90
19025;DHT22;9645;51.448;6.260;2022-07-29T10:44:12;24.00;99.90
19025;DHT22;9645;51.448;6.260;2022-07-29T10:46:40;24.10;99.90
19025;DHT22;9645;51.448;6.260;2022-07-29T10:49:11;24.80;99.90
19025;DHT22;9645;51.448;6.260;2022-07-29T10:52:02;25.90;99.90
19025;DHT22;9645;51.448;6.260;2022-07-29T10:54:41;26.70;99.90
19025;DHT22;9645;51.448;6.260;2022-07-29T10:57:26;27.00;99.90
19025;DHT22;9645;51.448;6.260;2022-07-29T11:00:26;26.90;99.90
19025;DHT22;9645;51.448;6.260;2022-07-29T11:02:53;27.00;99.90
19025;DHT22;9645;51.448;6.260;2022-07-29T11:05:23;27.70;99.90
19025;DHT22;9645;51.448;6.260;2022-07-29T11:08:21;28.30;99.90
19025;DHT22;9645;51.448;6.260;2022-07-29T11:10:49;27.70;99.90
19025;DHT22;9645;51.448;6.260;2022-07-29T11:13:45;26.80;99.90
19025;DHT22;9645;51.448;6.260;2022-07-29T11:16:13;26.50;99.90
19025;DHT22;9645;51.448;6.260;2022-07-29T11:21:43;25.70;99.90
19025;DHT22;9645;51.448;6.260;2022-07-29T11:24:13;25.50;99.90
19025;DHT22;9645;51.448;6.260;2022-07-29T11:26:41;25.30;99.90
19025;DHT22;9645;51.448;6.260;2022-07-29T11:29:18;25.80;99.90
19025;DHT22;9645;51.448;6.260;2022-07-29T11:31:47;26.00;99.90
19025;DHT22;9645;51.448;6.260;2022-07-29T11:34:19;26.40;99.90
19025;DHT22;9645;51.448;6.260;2022-07-29T11:37:19;27.10;99.90
19025;DHT22;9645;51.448;6.260;2022-07-29T11:42:43;28.40;99.90
19025;DHT22;9645;51.448;6.260;2022-07-29T11:45:16;28.70;99.90
19025;DHT22;9645;51.448;6.260;2022-07-29T11:47:51;29.20;99.90
19025;DHT22;9645;51.448;6.260;2022-07-29T11:50:32;29.50;99.90
19025;DHT22;9645;51.448;6.260;2022-07-29T11:53:02;29.70;99.90
19025;DHT22;9645;51.448;6.260;2022-07-29T11:55:29;29.60;99.90
19025;DHT22;9645;51.448;6.260;2022-07-29T11:58:01;29.60;99.90
19025;DHT22;9645;51.448;6.260;2022-07-29T12:00:30;29.70;99.90
19025;DHT22;9645;51.448;6.260;2022-07-29T12:02:59;29.20;99.90
19025;DHT22;9645;51.448;6.260;2022-07-29T12:05:38;29.20;99.90
19025;DHT22;9645;51.448;6.260;2022-07-29T12:08:08;29.00;99.90
19025;DHT22;9645;51.448;6.260;2022-07-29T12:10:36;28.90;99.90
19025;DHT22;9645;51.448;6.260;2022-07-29T12:13:03;29.30;99.90
19025;DHT22;9645;51.448;6.260;2022-07-29T12:15:30;29.50;99.90
19025;DHT22;9645;51.448;6.260;2022-07-29T12:17:57;29.40;99.90
19025;DHT22;9645;51.448;6.260;2022-07-29T12:20:26;29.20;99.90
19025;DHT22;9645;51.448;6.260;2022-07-29T12:22:54;28.90;99.90
19025;DHT22;9645;51.448;6.260;2022-07-29T12:25:23;28.50;99.90
19025;DHT22;9645;51.448;6.260;2022-07-29T12:27:58;29.10;99.90
19025;DHT22;9645;51.448;6.260;2022-07-29T12:30:44;29.10;99.80
19025;DHT22;9645;51.448;6.260;2022-07-29T12:33:17;29.30;99.90
19025;DHT22;9645;51.448;6.260;2022-07-29T12:35:47;29.80;99.70
19025;DHT22;9645;51.448;6.260;2022-07-29T12:38:15;29.70;99.00
19025;DHT22;9645;51.448;6.260;2022-07-29T12:40:44;29.60;98.60
19025;DHT22;9645;51.448;6.260;2022-07-29T12:43:14;29.40;98.90
19025;DHT22;9645;51.448;6.260;2022-07-29T12:45:42;29.50;99.10
19025;DHT22;9645;51.448;6.260;2022-07-29T12:48:10;29.80;98.70
19025;DHT22;9645;51.448;6.260;2022-07-29T12:50:52;30.20;98.60
19025;DHT22;9645;51.448;6.260;2022-07-29T12:53:20;29.80;96.80
19025;DHT22;9645;51.448;6.260;2022-07-29T12:55:50;30.00;98.00
19025;DHT22;9645;51.448;6.260;2022-07-29T12:58:32;29.60;98.10
19025;DHT22;9645;51.448;6.260;2022-07-29T13:01:05;29.90;98.70
19025;DHT22;9645;51.448;6.260;2022-07-29T13:03:50;30.10;97.60
19025;DHT22;9645;51.448;6.260;2022-07-29T13:06:31;29.70;97.30
19025;DHT22;9645;51.448;6.260;2022-07-29T13:09:04;29.20;96.80
19025;DHT22;9645;51.448;6.260;2022-07-29T13:11:33;28.90;97.40
19025;DHT22;9645;51.448;6.260;2022-07-29T13:14:01;29.10;98.50
19025;DHT22;9645;51.448;6.260;2022-07-29T13:16:28;29.20;98.40
19025;DHT22;9645;51.448;6.260;2022-07-29T13:19:10;29.50;99.70
19025;DHT22;9645;51.448;6.260;2022-07-29T13:21:38;29.90;97.60
19025;DHT22;9645;51.448;6.260;2022-07-29T13:24:06;30.00;96.60
19025;DHT22;9645;51.448;6.260;2022-07-29T13:26:39;30.30;97.90
19025;DHT22;9645;51.448;6.260;2022-07-29T13:29:06;30.50;95.60
19025;DHT22;9645;51.448;6.260;2022-07-29T13:31:33;30.40;94.20
19025;DHT22;9645;51.448;6.260;2022-07-29T13:34:00;30.20;94.30
19025;DHT22;9645;51.448;6.260;2022-07-29T13:36:27;30.10;95.20
19025;DHT22;9645;51.448;6.260;2022-07-29T13:38:54;30.20;95.00
19025;DHT22;9645;51.448;6.260;2022-07-29T13:41:21;30.10;95.70
19025;DHT22;9645;51.448;6.260;2022-07-29T13:43:49;30.20;94.20
19025;DHT22;9645;51.448;6.260;2022-07-29T13:46:16;30.40;94.50
19025;DHT22;9645;51.448;6.260;2022-07-29T13:48:43;30.20;94.90
19025;DHT22;9645;51.448;6.260;2022-07-29T13:51:10;30.10;96.70
19025;DHT22;9645;51.448;6.260;2022-07-29T13:53:37;30.20;96.20
19025;DHT22;9645;51.448;6.260;2022-07-29T13:56:04;30.40;95.50
19025;DHT22;9645;51.448;6.260;2022-07-29T13:58:32;30.10;94.70
19025;DHT22;9645;51.448;6.260;2022-07-29T14:01:01;29.40;96.10
19025;DHT22;9645;51.448;6.260;2022-07-29T14:03:28;29.30;95.20
19025;DHT22;9645;51.448;6.260;2022-07-29T14:05:55;29.00;94.50
19025;DHT22;9645;51.448;6.260;2022-07-29T14:08:25;29.00;94.90
19025;DHT22;9645;51.448;6.260;2022-07-29T14:10:52;28.70;96.10
19025;DHT22;9645;51.448;6.260;2022-07-29T14:13:19;29.00;96.10
19025;DHT22;9645;51.448;6.260;2022-07-29T14:15:46;29.20;95.90
19025;DHT22;9645;51.448;6.260;2022-07-29T14:18:14;29.20;95.90
19025;DHT22;9645;51.448;6.260;2022-07-29T14:20:41;29.30;96.40
19025;DHT22;9645;51.448;6.260;2022-07-29T14:23:08;29.40;96.20
19025;DHT22;9645;51.448;6.260;2022-07-29T14:25:35;29.60;95.90
19025;DHT22;9645;51.448;6.260;2022-07-29T14:28:02;29.60;95.80
19025;DHT22;9645;51.448;6.260;2022-07-29T14:30:29;29.60;95.20
19025;DHT22;9645;51.448;6.260;2022-07-29T14:32:56;29.40;95.80
19025;DHT22;9645;51.448;6.260;2022-07-29T14:35:25;29.50;96.20
19025;DHT22;9645;51.448;6.260;2022-07-29T14:37:52;29.60;96.00
19025;DHT22;9645;51.448;6.260;2022-07-29T14:40:19;29.20;95.30
19025;DHT22;9645;51.448;6.260;2022-07-29T14:42:45;29.00;95.50
19025;DHT22;9645;51.448;6.260;2022-07-29T14:45:12;28.70;95.90
19025;DHT22;9645;51.448;6.260;2022-07-29T14:47:39;28.60;97.40
19025;DHT22;9645;51.448;6.260;2022-07-29T14:50:07;28.90;96.60
19025;DHT22;9645;51.448;6.260;2022-07-29T14:52:36;28.80;96.50
19025;DHT22;9645;51.448;6.260;2022-07-29T14:55:04;29.00;95.60
19025;DHT22;9645;51.448;6.260;2022-07-29T14:57:31;29.20;96.80
19025;DHT22;9645;51.448;6.260;2022-07-29T14:59:58;29.30;96.70
19025;DHT22;9645;51.448;6.260;2022-07-29T15:02:25;29.50;95.30
19025;DHT22;9645;51.448;6.260;2022-07-29T15:04:52;29.60;95.10
19025;DHT22;9645;51.448;6.260;2022-07-29T15:07:19;29.60;95.10
19025;DHT22;9645;51.448;6.260;2022-07-29T15:09:47;29.50;93.80
19025;DHT22;9645;51.448;6.260;2022-07-29T15:12:14;29.60;94.50
19025;DHT22;9645;51.448;6.260;2022-07-29T15:14:41;29.60;94.00
19025;DHT22;9645;51.448;6.260;2022-07-29T15:17:08;29.50;93.80
19025;DHT22;9645;51.448;6.260;2022-07-29T15:19:35;29.10;95.20
19025;DHT22;9645;51.448;6.260;2022-07-29T15:22:02;29.20;94.90
19025;DHT22;9645;51.448;6.260;2022-07-29T15:24:30;29.30;94.50
19025;DHT22;9645;51.448;6.260;2022-07-29T15:26:58;29.40;93.60
19025;DHT22;9645;51.448;6.260;2022-07-29T15:29:25;29.10;94.30
19025;DHT22;9645;51.448;6.260;2022-07-29T15:31:52;29.20;94.40
19025;DHT22;9645;51.448;6.260;2022-07-29T15:34:19;29.30;94.70
19025;DHT22;9645;51.448;6.260;2022-07-29T15:36:49;29.30;94.30
19025;DHT22;9645;51.448;6.260;2022-07-29T15:39:16;29.10;94.60
19025;DHT22;9645;51.448;6.260;2022-07-29T15:41:43;29.10;94.70
19025;DHT22;9645;51.448;6.260;2022-07-29T15:44:11;29.10;93.90
19025;DHT22;9645;51.448;6.260;2022-07-29T15:46:38;29.10;94.80
19025;DHT22;9645;51.448;6.260;2022-07-29T15:49:23;29.20;95.40
19025;DHT22;9645;51.448;6.260;2022-07-29T15:51:56;29.40;94.60
19025;DHT22;9645;51.448;6.260;2022-07-29T15:54:23;29.50;94.20
19025;DHT22;9645;51.448;6.260;2022-07-29T15:56:49;29.60;93.80
19025;DHT22;9645;51.448;6.260;2022-07-29T15:59:18;29.50;94.30
19025;DHT22;9645;51.448;6.260;2022-07-29T16:01:45;29.30;93.90
19025;DHT22;9645;51.448;6.260;2022-07-29T16:04:12;29.10;94.70
19025;DHT22;9645;51.448;6.260;2022-07-29T16:06:39;29.10;94.10
19025;DHT22;9645;51.448;6.260;2022-07-29T16:09:06;29.20;94.80